Time;durP1;ratioP1;P1;durP2;ratioP2;P2;SDS_P1;SDS_P2;PMS_P1;PMS_P2;Temp;Humidity;BMP_temperature;BMP_pressure;BME280_temperature;BME280_humidity;BME280_pressure;Samples;Min_cycle;Max_cycle;Signal;HPM_P1;HPM_P2
2022/06/23 00:02:57;;;;;;;5.55;4.53;;;16.40;99.90;;;;;;9180161;19;20086;-73
2022/06/23 00:06:06;;;;;;;6.80;4.82;;;16.50;99.90;;;;;;9178546;19;20015;-72
2022/06/23 00:09:40;;;;;;;7.07;5.10;;;16.40;99.90;;;;;;9178586;19;20022;-73
2022/06/23 00:12:46;;;;;;;7.35;5.07;;;16.40;99.90;;;;;;9175691;19;20109;-72
2022/06/23 00:15:53;;;;;;;7.38;4.97;;;16.50;99.90;;;;;;9178119;19;20453;-72
2022/06/23 00:18:57;;;;;;;;;;;16.30;99.90;;;;;;9181982;19;20018;-72
2022/06/23 00:22:00;;;;;;;8.13;5.35;;;16.30;99.90;;;;;;9184798;19;20317;-71
2022/06/23 00:25:09;;;;;;;7.70;5.07;;;16.10;99.90;;;;;;9186191;19;20018;-72
2022/06/23 00:28:26;;;;;;;7.55;5.40;;;16.00;99.90;;;;;;9187615;19;20104;-72
2022/06/23 00:31:32;;;;;;;9.25;5.72;;;15.90;99.90;;;;;;9189256;19;20478;-72
2022/06/23 00:34:39;;;;;;;10.50;5.95;;;15.90;99.90;;;;;;9186882;19;20536;-72
2022/06/23 00:37:49;;;;;;;7.75;5.90;;;15.80;99.90;;;;;;9186209;19;20022;-72
2022/06/23 00:40:57;;;;;;;8.43;6.00;;;15.80;99.90;;;;;;9186305;19;20015;-72
2022/06/23 00:44:05;;;;;;;9.68;5.82;;;15.70;99.90;;;;;;9179729;19;20078;-72
2022/06/23 00:47:16;;;;;;;9.45;5.80;;;15.70;99.90;;;;;;9184937;19;20022;-72
2022/06/23 00:50:27;;;;;;;7.18;5.22;;;15.40;99.90;;;;;;9186322;19;20014;-73
2022/06/23 00:53:38;;;;;;;8.68;5.45;;;15.60;99.90;;;;;;9184773;19;20055;-72
2022/06/23 00:56:52;;;;;;;9.02;5.75;;;15.60;99.90;;;;;;9186414;19;20487;-73
2022/06/23 01:00:01;;;;;;;7.78;5.18;;;15.40;99.90;;;;;;9184190;19;20014;-72
2022/06/23 01:03:14;;;;;;;8.93;5.80;;;15.40;99.90;;;;;;9184185;19;20091;-72
2022/06/23 01:06:26;;;;;;;8.93;6.22;;;15.30;99.90;;;;;;9184501;19;20011;-72
2022/06/23 01:09:38;;;;;;;8.68;6.00;;;15.40;99.90;;;;;;9187003;19;20356;-72
2022/06/23 01:12:49;;;;;;;8.95;5.97;;;15.40;99.90;;;;;;9181986;19;20026;-72
2022/06/23 01:15:58;;;;;;;10.73;6.43;;;15.40;99.90;;;;;;9187527;19;20017;-72
2022/06/23 01:19:15;;;;;;;9.93;6.10;;;15.40;99.90;;;;;;9183296;19;20506;-72
2022/06/23 01:22:28;;;;;;;9.43;6.30;;;15.30;99.90;;;;;;9182927;19;20500;-72
2022/06/23 01:25:50;;;;;;;9.75;6.50;;;15.40;99.90;;;;;;9186693;19;20489;-72
2022/06/23 01:29:03;;;;;;;10.20;6.55;;;15.20;99.90;;;;;;9185836;19;20586;-72
2022/06/23 01:32:14;;;;;;;8.02;6.13;;;15.10;99.90;;;;;;9185750;19;20051;-73
2022/06/23 01:35:26;;;;;;;8.82;6.10;;;15.30;99.90;;;;;;9183228;19;20018;-72
2022/06/23 01:38:41;;;;;;;9.38;6.07;;;15.00;99.90;;;;;;9185388;19;20044;-72
2022/06/23 01:41:53;;;;;;;8.95;6.25;;;15.10;99.90;;;;;;9187087;19;20014;-71
2022/06/23 01:45:04;;;;;;;10.55;6.55;;;14.90;99.90;;;;;;9186838;19;20022;-72
2022/06/23 01:48:15;;;;;;;10.82;6.68;;;15.00;99.90;;;;;;9186885;19;20019;-71
2022/06/23 01:51:24;;;;;;;8.70;6.43;;;15.00;99.90;;;;;;9182436;19;20026;-72
2022/06/23 01:54:29;;;;;;;10.38;6.70;;;14.90;99.90;;;;;;9185300;19;20025;-72
2022/06/23 01:57:39;;;;;;;10.70;6.63;;;15.10;99.90;;;;;;9181270;19;20078;-72
2022/06/23 02:00:49;;;;;;;10.52;6.70;;;15.00;99.90;;;;;;9185842;19;20085;-72
2022/06/23 02:03:58;;;;;;;10.05;7.03;;;14.90;99.90;;;;;;9183091;19;20015;-72
2022/06/23 02:07:12;;;;;;;10.73;7.25;;;14.60;99.90;;;;;;9178581;19;20666;-72
2022/06/23 02:10:24;;;;;;;9.60;6.43;;;14.90;99.90;;;;;;9185982;19;20018;-72
2022/06/23 02:13:35;;;;;;;10.70;6.47;;;14.80;99.90;;;;;;9181816;19;20014;-72
2022/06/23 02:16:48;;;;;;;10.63;6.50;;;14.80;99.90;;;;;;9181886;19;20017;-72
2022/06/23 02:19:55;;;;;;;9.77;6.90;;;14.70;99.90;;;;;;9180506;19;20021;-72
2022/06/23 02:23:19;;;;;;;10.20;6.50;;;14.80;99.90;;;;;;9183946;19;20024;-72
2022/06/23 02:26:28;;;;;;;10.93;6.70;;;14.70;99.90;;;;;;9184791;19;20058;-72
2022/06/23 02:29:41;;;;;;;11.23;7.28;;;14.70;99.90;;;;;;9181077;19;20468;-71
2022/06/23 02:33:02;;;;;;;10.70;6.75;;;14.50;99.90;;;;;;9182278;19;20056;-72
2022/06/23 02:36:16;;;;;;;9.10;6.60;;;14.50;99.90;;;;;;9181521;19;20111;-73
2022/06/23 02:39:26;;;;;;;9.05;6.43;;;14.50;99.90;;;;;;9180676;19;20022;-73
2022/06/23 02:42:34;;;;;;;11.00;6.70;;;14.50;99.90;;;;;;9181072;19;20018;-73
2022/06/23 02:46:08;;;;;;;10.40;6.72;;;14.50;99.90;;;;;;9181160;19;20014;-72
2022/06/23 02:49:34;;;;;;;10.32;6.88;;;14.50;99.90;;;;;;9183151;19;20019;-72
2022/06/23 02:53:01;;;;;;;10.52;6.78;;;14.50;99.90;;;;;;9182302;19;20416;-73
2022/06/23 02:56:34;;;;;;;9.93;6.40;;;14.50;99.90;;;;;;9182054;19;20105;-73
2022/06/23 02:59:44;;;;;;;10.45;6.70;;;14.50;99.90;;;;;;9179177;19;20011;-73
2022/06/23 03:02:59;;;;;;;8.90;6.43;;;14.30;99.90;;;;;;9180818;19;20044;-73
2022/06/23 03:06:16;;;;;;;11.00;7.18;;;14.10;99.90;;;;;;9182904;19;20027;-72
2022/06/23 03:09:25;;;;;;;10.73;7.00;;;14.20;99.90;;;;;;9182150;19;20074;-72
2022/06/23 03:12:40;;;;;;;10.50;6.30;;;14.20;99.90;;;;;;9181101;19;20099;-73
2022/06/23 03:15:52;;;;;;;9.40;6.60;;;14.40;99.90;;;;;;9178453;19;20021;-73
2022/06/23 03:19:02;;;;;;;11.93;6.97;;;14.10;99.90;;;;;;9181611;19;20014;-72
2022/06/23 03:22:18;;;;;;;12.55;6.82;;;13.90;99.90;;;;;;9177021;19;20018;-73
2022/06/23 03:25:27;;;;;;;12.00;6.85;;;14.00;99.90;;;;;;9182457;19;20022;-73
2022/06/23 03:28:36;;;;;;;10.32;6.82;;;14.10;99.90;;;;;;9180653;19;20078;-73
2022/06/23 03:31:45;;;;;;;11.65;7.05;;;14.10;99.90;;;;;;9178167;19;20351;-73
2022/06/23 03:34:55;;;;;;;11.20;6.80;;;14.00;99.90;;;;;;9177576;19;20507;-73
2022/06/23 03:38:09;;;;;;;12.02;6.88;;;14.00;99.90;;;;;;9177462;19;20475;-74
2022/06/23 03:44:36;;;;;;;11.90;6.65;;;14.00;99.90;;;;;;9180577;19;20019;-72
2022/06/23 03:47:47;;;;;;;11.00;6.97;;;14.10;99.90;;;;;;9181095;19;20025;-72
2022/06/23 03:50:58;;;;;;;14.35;6.88;;;14.10;99.90;;;;;;9178121;19;20491;-72
2022/06/23 03:54:09;;;;;;;10.70;6.63;;;14.00;99.90;;;;;;9182919;19;20022;-72
2022/06/23 03:57:20;;;;;;;11.52;6.90;;;14.00;99.90;;;;;;9185207;19;20011;-72
2022/06/23 04:00:37;;;;;;;9.63;6.65;;;14.40;99.90;;;;;;9192034;19;20049;-72
2022/06/23 04:03:50;;;;;;;11.20;6.65;;;14.00;99.90;;;;;;9188889;19;20018;-72
2022/06/23 04:06:55;;;;;;;11.45;7.00;;;14.00;99.90;;;;;;9190903;19;20081;-72
2022/06/23 04:10:05;;;;;;;11.98;6.82;;;13.90;99.90;;;;;;9188729;19;20014;-72
2022/06/23 04:13:20;;;;;;;11.02;6.80;;;14.00;99.90;;;;;;9185048;19;20018;-72
2022/06/23 04:16:26;;;;;;;13.25;7.05;;;14.20;99.90;;;;;;9188488;19;20046;-72
2022/06/23 04:19:33;;;;;;;10.82;6.93;;;14.00;99.90;;;;;;9185595;19;20081;-72
2022/06/23 04:22:40;;;;;;;;;;;13.90;99.90;;;;;;9185907;19;20047;-72
2022/06/23 04:25:51;;;;;;;10.70;6.75;;;14.10;99.90;;;;;;9186233;19;19922;-72
2022/06/23 04:28:58;;;;;;;13.20;7.55;;;14.20;99.90;;;;;;9185438;19;20391;-72
2022/06/23 04:32:06;;;;;;;11.93;7.63;;;13.90;99.90;;;;;;9188108;19;20018;-72
2022/06/23 04:35:14;;;;;;;12.32;7.28;;;14.20;99.90;;;;;;9185969;19;20420;-72
2022/06/23 04:38:23;;;;;;;11.70;6.93;;;14.20;99.90;;;;;;9181956;19;20021;-72
2022/06/23 04:41:37;;;;;;;13.95;8.05;;;14.20;99.90;;;;;;9189800;19;20021;-72
2022/06/23 04:44:50;;;;;;;11.65;6.78;;;14.10;99.90;;;;;;9187646;19;20401;-72
2022/06/23 04:47:58;;;;;;;13.88;7.70;;;14.40;99.90;;;;;;9185973;19;20014;-71
2022/06/23 04:51:08;;;;;;;11.43;7.00;;;14.30;99.90;;;;;;9184291;19;20418;-72
2022/06/23 04:54:18;;;;;;;13.80;6.72;;;14.10;99.90;;;;;;9186174;19;20487;-72
2022/06/23 04:57:28;;;;;;;16.08;8.25;;;14.40;99.90;;;;;;9181301;19;20025;-72
2022/06/23 05:00:40;;;;;;;14.65;7.55;;;14.40;99.90;;;;;;9188667;19;20059;-71
2022/06/23 05:03:49;;;;;;;13.70;7.82;;;14.60;99.90;;;;;;9185493;19;20025;-72
2022/06/23 05:06:56;;;;;;;14.43;8.50;;;14.50;99.90;;;;;;9188002;19;20018;-72
2022/06/23 05:10:02;;;;;;;;;;;14.60;99.90;;;;;;9186488;19;20070;-72
2022/06/23 05:13:11;;;;;;;14.35;8.30;;;14.60;99.90;;;;;;9187167;19;19938;-71
2022/06/23 05:16:22;;;;;;;12.95;8.00;;;14.70;99.90;;;;;;9186833;19;20351;-72
2022/06/23 05:19:30;;;;;;;14.07;9.02;;;14.80;99.90;;;;;;9183210;19;20066;-71
2022/06/23 05:22:38;;;;;;;14.10;8.52;;;15.10;99.90;;;;;;9182186;19;20038;-71
2022/06/23 05:25:46;;;;;;;12.68;7.75;;;14.80;99.90;;;;;;9184709;19;20094;-72
2022/06/23 05:28:56;;;;;;;14.07;8.60;;;14.90;99.90;;;;;;9185047;19;20011;-72
2022/06/23 05:32:04;;;;;;;13.68;8.63;;;14.90;99.90;;;;;;9183872;19;20026;-72
2022/06/23 05:35:17;;;;;;;12.07;8.45;;;14.70;99.90;;;;;;9181803;19;20015;-72
2022/06/23 05:38:30;;;;;;;15.20;8.50;;;15.00;99.90;;;;;;9180620;19;20021;-72
2022/06/23 05:41:38;;;;;;;15.98;9.00;;;14.80;99.90;;;;;;9185304;19;20019;-73
2022/06/23 05:44:51;;;;;;;13.15;8.23;;;15.20;99.90;;;;;;9182398;19;20082;-72
2022/06/23 05:47:58;;;;;;;14.77;9.18;;;15.10;99.90;;;;;;9177156;19;20015;-72
2022/06/23 05:51:10;;;;;;;11.20;7.93;;;15.10;99.90;;;;;;9185385;19;20019;-72
2022/06/23 05:54:22;;;;;;;11.05;8.13;;;15.00;99.90;;;;;;9185008;19;20014;-72
2022/06/23 05:57:30;;;;;;;12.43;8.52;;;15.00;99.90;;;;;;9182279;19;20018;-72
2022/06/23 06:00:43;;;;;;;13.82;8.20;;;15.20;99.90;;;;;;9181826;19;20340;-72
2022/06/23 06:03:52;;;;;;;15.13;8.48;;;15.20;99.90;;;;;;9181286;19;20015;-72
2022/06/23 06:06:57;;;;;;;12.02;7.80;;;15.50;99.90;;;;;;9184581;19;20044;-72
2022/06/23 06:10:02;;;;;;;13.07;8.20;;;15.50;99.90;;;;;;9184150;19;20014;-71
2022/06/23 06:13:07;;;;;;;14.18;8.70;;;15.30;99.90;;;;;;9185761;19;20018;-71
2022/06/23 06:16:15;;;;;;;14.23;8.52;;;15.50;99.90;;;;;;9184253;19;20022;-72
2022/06/23 06:19:21;;;;;;;13.38;8.27;;;15.30;99.90;;;;;;9177031;19;20018;-72
2022/06/23 06:22:40;;;;;;;14.00;9.13;;;15.60;99.90;;;;;;9175645;19;20026;-72
2022/06/23 06:25:49;;;;;;;10.85;7.82;;;15.70;99.90;;;;;;9180133;19;20471;-72
2022/06/23 06:28:58;;;;;;;13.30;8.48;;;15.60;99.90;;;;;;9183303;19;20014;-72
2022/06/23 06:32:18;;;;;;;12.35;9.00;;;15.50;99.90;;;;;;9182716;19;20320;-72
2022/06/23 06:35:31;;;;;;;10.07;7.60;;;15.70;99.90;;;;;;9179563;19;20360;-72
2022/06/23 06:38:35;;;;;;;14.57;7.90;;;15.80;99.90;;;;;;9178274;19;20179;-72
2022/06/23 06:41:42;;;;;;;12.10;8.25;;;15.90;99.90;;;;;;9182965;19;20018;-71
2022/06/23 06:44:50;;;;;;;12.02;8.48;;;15.90;99.90;;;;;;9181654;19;20018;-72
2022/06/23 06:47:56;;;;;;;11.70;8.00;;;16.00;99.90;;;;;;9181069;19;20022;-72
2022/06/23 06:51:03;;;;;;;12.98;7.90;;;16.10;99.90;;;;;;9178920;19;20015;-72
2022/06/23 06:54:14;;;;;;;12.43;8.18;;;16.10;99.90;;;;;;9180428;19;20078;-72
2022/06/23 06:57:25;;;;;;;11.45;7.97;;;16.40;99.90;;;;;;9178214;19;20006;-72
2022/06/23 07:00:36;;;;;;;10.70;7.25;;;16.30;99.90;;;;;;9184321;19;20096;-72
2022/06/23 07:03:46;;;;;;;10.38;7.50;;;16.40;99.90;;;;;;9178465;19;20029;-72
2022/06/23 07:06:55;;;;;;;10.60;7.50;;;16.50;99.90;;;;;;9180785;19;20084;-72
2022/06/23 07:10:04;;;;;;;11.85;7.22;;;16.50;99.90;;;;;;9183846;19;20021;-72
2022/06/23 07:13:14;;;;;;;12.18;8.30;;;16.60;99.90;;;;;;9182707;19;20364;-72
2022/06/23 07:16:21;;;;;;;13.02;7.15;;;16.70;99.90;;;;;;9178613;19;20006;-72
2022/06/23 07:19:35;;;;;;;12.00;7.68;;;16.80;99.90;;;;;;9175777;19;20089;-72
2022/06/23 07:22:44;;;;;;;12.15;7.30;;;16.80;99.90;;;;;;9182439;19;20022;-72
2022/06/23 07:25:52;;;;;;;11.60;7.25;;;17.00;99.90;;;;;;9177381;19;20007;-72
2022/06/23 07:29:04;;;;;;;11.35;7.63;;;16.90;99.90;;;;;;9177463;19;20010;-72
2022/06/23 07:32:17;;;;;;;10.80;6.80;;;17.30;99.90;;;;;;9177676;19;20408;-72
2022/06/23 07:35:34;;;;;;;10.10;6.80;;;17.20;99.90;;;;;;9175868;19;20015;-72
2022/06/23 07:38:40;;;;;;;;;;;17.30;99.90;;;;;;9179572;19;20542;-72
2022/06/23 07:41:50;;;;;;;9.15;6.60;;;17.30;99.90;;;;;;9180157;19;19933;-72
2022/06/23 07:44:58;;;;;;;9.10;6.30;;;17.40;99.90;;;;;;9176968;19;20022;-72
2022/06/23 07:48:02;;;;;;;8.75;6.50;;;17.40;99.90;;;;;;9178992;19;20042;-72
2022/06/23 07:51:13;;;;;;;9.40;6.43;;;17.60;99.90;;;;;;9176561;19;20036;-72
2022/06/23 07:54:22;;;;;;;10.18;6.43;;;17.70;99.90;;;;;;9177527;19;20015;-72
2022/06/23 07:57:28;;;;;;;9.88;6.15;;;17.70;99.90;;;;;;9180040;19;20018;-72
2022/06/23 08:00:34;;;;;;;9.27;5.90;;;17.90;99.90;;;;;;9176622;19;20011;-72
2022/06/23 08:03:42;;;;;;;7.68;5.80;;;17.90;99.90;;;;;;9179384;19;20025;-72
2022/06/23 08:06:50;;;;;;;8.77;6.13;;;17.90;99.90;;;;;;9177029;19;20025;-72
2022/06/23 08:09:57;;;;;;;11.15;5.90;;;18.10;99.90;;;;;;9181412;19;20471;-72
2022/06/23 08:12:59;;;;;;;;;;;18.10;99.90;;;;;;9181097;19;20010;-72
2022/06/23 08:19:32;;;;;;;11.32;5.95;;;18.40;99.90;;;;;;9175941;19;20143;-72
2022/06/23 08:22:41;;;;;;;8.40;5.60;;;18.30;99.90;;;;;;9181216;19;20073;-71
2022/06/23 08:25:45;;;;;;;10.43;5.85;;;18.50;99.90;;;;;;9175794;19;20682;-72
2022/06/23 08:28:51;;;;;;;9.23;6.03;;;18.60;99.90;;;;;;9180191;19;20345;-72
2022/06/23 08:31:56;;;;;;;10.10;5.60;;;18.60;99.90;;;;;;9179894;19;20014;-72
2022/06/23 08:35:03;;;;;;;9.93;5.43;;;18.90;99.90;;;;;;9175433;19;20014;-72
2022/06/23 08:38:12;;;;;;;9.70;5.40;;;18.80;99.90;;;;;;9173884;19;20010;-72
2022/06/23 08:41:24;;;;;;;7.82;5.18;;;19.10;99.90;;;;;;9175822;19;20014;-72
2022/06/23 08:44:35;;;;;;;8.30;4.75;;;19.00;99.90;;;;;;9184590;19;20022;-72
2022/06/23 08:47:48;;;;;;;7.20;4.68;;;19.20;99.90;;;;;;9188293;19;20491;-72
2022/06/23 08:50:57;;;;;;;10.65;5.05;;;19.20;99.90;;;;;;9186973;19;20078;-73
2022/06/23 08:54:15;;;;;;;8.48;4.80;;;19.20;99.90;;;;;;9183348;19;20011;-72
2022/06/23 08:57:24;;;;;;;8.05;5.38;;;19.30;99.90;;;;;;9182974;19;20015;-73
2022/06/23 09:00:35;;;;;;;9.07;4.90;;;19.50;99.90;;;;;;9182985;19;20014;-73
2022/06/23 09:03:49;;;;;;;8.32;4.88;;;19.70;99.90;;;;;;9189298;19;20047;-73
2022/06/23 09:06:59;;;;;;;6.00;4.13;;;19.70;99.90;;;;;;9183075;19;20047;-71
2022/06/23 09:10:18;;;;;;;7.47;4.25;;;18.00;99.90;;;;;;9183329;19;20011;-71
2022/06/23 09:13:35;;;;;;;9.80;4.47;;;19.90;99.90;;;;;;9186981;19;20014;-71
2022/06/23 09:17:02;;;;;;;7.68;4.65;;;19.80;99.90;;;;;;9187425;19;20017;-71
2022/06/23 09:20:29;;;;;;;6.13;4.57;;;20.10;99.90;;;;;;9183336;19;20018;-71
2022/06/23 09:23:57;;;;;;;9.55;4.57;;;20.00;99.90;;;;;;9092707;19;20482;-71
2022/06/23 09:27:13;;;;;;;6.18;4.50;;;20.20;99.90;;;;;;9185610;19;20025;-71
2022/06/23 09:30:23;;;;;;;7.83;4.30;;;20.20;99.90;;;;;;9182358;19;20010;-71
2022/06/23 09:33:38;;;;;;;8.02;4.25;;;20.40;99.90;;;;;;9187871;19;20045;-71
2022/06/23 09:37:15;;;;;;;6.85;3.90;;;20.70;99.90;;;;;;9180457;19;20014;-68
2022/06/23 09:40:45;;;;;;;7.18;4.40;;;20.60;99.90;;;;;;9186677;19;20624;-73
2022/06/23 09:44:26;;;;;;;7.25;4.22;;;20.70;99.90;;;;;;9184238;19;20040;-74
2022/06/23 09:47:58;;;;;;;6.25;3.95;;;20.80;99.90;;;;;;9185474;19;20026;-72
2022/06/23 09:51:19;;;;;;;7.65;4.65;;;21.00;99.90;;;;;;9182259;19;20022;-72
2022/06/23 09:55:00;;;;;;;7.40;3.67;;;21.10;99.90;;;;;;9183755;19;20010;-72
2022/06/23 09:58:39;;;;;;;5.82;3.50;;;21.20;99.90;;;;;;9180740;19;20052;-74
2022/06/23 10:01:49;;;;;;;;;;;21.40;99.90;;;;;;9181681;19;20066;-74
2022/06/23 10:05:08;;;;;;;6.13;3.40;;;21.50;99.90;;;;;;9180871;19;20375;-74
2022/06/23 10:08:24;;;;;;;4.80;3.42;;;21.60;99.90;;;;;;9180293;19;20032;-73
2022/06/23 10:11:50;;;;;;;4.93;3.50;;;21.90;99.90;;;;;;9182463;19;20026;-73
2022/06/23 10:15:20;;;;;;;5.82;3.50;;;21.80;99.70;;;;;;9180130;19;20023;-73
2022/06/23 10:18:53;;;;;;;4.57;3.30;;;22.10;99.90;;;;;;9179304;19;20138;-71
2022/06/23 10:22:12;;;;;;;5.57;3.28;;;22.10;99.10;;;;;;9182016;19;20355;-71
2022/06/23 10:25:48;;;;;;;7.07;3.65;;;22.20;99.40;;;;;;9179871;19;20011;-73
2022/06/23 10:29:16;;;;;;;5.40;3.50;;;22.30;99.10;;;;;;9178489;19;20055;-74
2022/06/23 10:33:00;;;;;;;6.03;3.33;;;22.50;98.40;;;;;;9183770;19;20122;-74
2022/06/23 10:36:36;;;;;;;7.40;3.40;;;22.70;98.20;;;;;;9182491;19;20059;-75
2022/06/23 10:40:21;;;;;;;6.13;3.15;;;22.80;97.70;;;;;;9182146;19;20773;-73
2022/06/23 10:43:55;;;;;;;8.13;3.47;;;22.80;97.30;;;;;;9179980;19;20014;-73
2022/06/23 10:47:07;;;;;;;6.43;3.08;;;23.10;97.50;;;;;;9180137;19;20026;-74
2022/06/23 10:50:39;;;;;;;5.57;3.15;;;23.30;97.70;;;;;;9181274;19;20118;-74
2022/06/23 10:54:23;;;;;;;5.93;2.90;;;23.40;96.70;;;;;;9178931;19;20014;-75
2022/06/23 10:58:11;;;;;;;4.57;2.78;;;23.50;95.70;;;;;;9170869;19;20017;-74
2022/06/23 11:01:34;;;;;;;6.80;3.30;;;23.50;95.90;;;;;;9180805;19;20037;-75
2022/06/23 11:04:55;;;;;;;5.28;3.50;;;23.70;96.90;;;;;;9178307;19;20029;-75
2022/06/23 11:08:13;;;;;;;4.93;3.25;;;23.70;95.50;;;;;;9177060;19;20026;-75
2022/06/23 11:11:30;;;;;;;6.85;3.25;;;23.80;95.40;;;;;;9177872;19;20467;-75
2022/06/23 11:14:48;;;;;;;5.13;3.00;;;23.90;94.90;;;;;;9173267;19;20015;-75
2022/06/23 11:18:03;;;;;;;3.90;2.70;;;24.00;94.70;;;;;;9174610;19;20371;-75
2022/06/23 11:21:32;;;;;;;3.70;2.90;;;24.30;94.40;;;;;;9181864;19;20064;-75
2022/06/23 11:24:47;;;;;;;5.47;3.15;;;24.30;94.10;;;;;;9180523;19;20018;-75
2022/06/23 11:27:59;;;;;;;4.65;3.05;;;24.40;94.60;;;;;;9176226;19;20018;-75
2022/06/23 11:31:24;;;;;;;8.38;3.47;;;24.60;94.20;;;;;;9178676;19;20014;-75
2022/06/23 11:34:47;;;;;;;7.43;3.05;;;24.60;93.30;;;;;;9179666;19;20022;-75
2022/06/23 11:38:09;;;;;;;7.00;3.00;;;24.80;92.60;;;;;;9176633;19;20034;-75
2022/06/23 11:41:27;;;;;;;6.10;3.10;;;24.90;92.60;;;;;;9181231;19;20034;-75
2022/06/23 11:44:45;;;;;;;5.45;2.50;;;25.20;92.50;;;;;;9180514;19;20018;-75
2022/06/23 11:48:06;;;;;;;8.60;3.22;;;25.20;92.00;;;;;;9178402;19;20014;-75
2022/06/23 11:51:20;;;;;;;4.82;3.03;;;25.20;90.20;;;;;;9179499;19;20019;-75
2022/06/23 11:54:40;;;;;;;5.57;2.67;;;25.40;90.50;;;;;;9180461;19;20022;-75
2022/06/23 11:58:11;;;;;;;5.40;2.70;;;25.60;86.50;;;;;;9179472;19;20022;-76
2022/06/23 12:01:19;;;;;;;5.68;2.60;;;25.80;89.00;;;;;;9179831;19;20010;-75
2022/06/23 12:04:43;;;;;;;;;;;25.50;83.20;;;;;;9179073;19;20640;-76
2022/06/23 12:08:30;;;;;;;4.28;2.50;;;26.00;82.40;;;;;;9179019;19;19918;-77
2022/06/23 12:11:36;;;;;;;3.60;2.55;;;26.00;79.30;;;;;;9179953;19;20357;-75
2022/06/23 12:14:41;;;;;;;3.17;2.60;;;26.20;79.50;;;;;;9178480;19;20011;-76
2022/06/23 12:17:48;;;;;;;4.03;2.78;;;26.30;77.90;;;;;;9183993;19;20074;-76
2022/06/23 12:20:57;;;;;;;4.68;2.85;;;26.30;75.10;;;;;;9185081;19;20364;-76
2022/06/23 12:24:15;;;;;;;4.00;2.80;;;26.40;76.80;;;;;;9189643;19;20018;-76
2022/06/23 12:27:27;;;;;;;3.63;2.50;;;26.50;75.70;;;;;;9187754;19;20019;-75
2022/06/23 12:30:36;;;;;;;4.25;2.55;;;26.80;71.60;;;;;;9189595;19;20017;-75
2022/06/23 12:33:48;;;;;;;7.82;2.53;;;26.90;73.40;;;;;;9186884;19;20019;-76
2022/06/23 12:37:02;;;;;;;4.25;2.28;;;27.10;73.40;;;;;;9181948;19;20412;-75
2022/06/23 12:40:15;;;;;;;4.03;2.40;;;27.10;71.10;;;;;;9185095;19;20078;-75
2022/06/23 12:43:28;;;;;;;4.40;2.90;;;27.30;71.10;;;;;;9185674;19;20086;-75
2022/06/23 12:46:40;;;;;;;5.60;2.30;;;27.30;67.80;;;;;;9183463;19;20362;-75
2022/06/23 12:50:01;;;;;;;5.07;2.40;;;27.40;71.10;;;;;;9188760;19;20055;-75
2022/06/23 12:53:25;;;;;;;3.17;2.40;;;27.60;70.70;;;;;;9185889;19;20018;-75
2022/06/23 12:56:53;;;;;;;3.33;2.40;;;27.70;67.40;;;;;;9185512;19;20006;-75
2022/06/23 13:00:12;;;;;;;4.63;2.60;;;27.90;67.60;;;;;;9183728;19;20033;-75
2022/06/23 13:03:23;;;;;;;5.70;2.95;;;28.10;67.40;;;;;;9187484;19;20014;-75
2022/06/23 13:06:36;;;;;;;5.05;2.65;;;28.00;64.00;;;;;;9182721;19;20057;-75
2022/06/23 13:09:46;;;;;;;5.60;2.88;;;28.30;64.80;;;;;;9187613;19;20018;-75
2022/06/23 13:13:01;;;;;;;4.20;2.25;;;28.30;63.40;;;;;;9183829;19;20051;-75
2022/06/23 13:16:13;;;;;;;4.03;2.40;;;28.40;65.40;;;;;;9187191;19;20524;-75
2022/06/23 13:19:22;;;;;;;3.33;2.45;;;28.70;65.10;;;;;;9186206;19;20011;-75
2022/06/23 13:22:27;;;;;;;4.63;2.35;;;28.70;63.80;;;;;;9186803;19;20348;-75
2022/06/23 13:25:35;;;;;;;3.50;2.55;;;28.90;62.50;;;;;;9183773;19;20010;-75
2022/06/23 13:28:44;;;;;;;4.95;2.45;;;29.10;61.40;;;;;;9181719;19;20094;-75
2022/06/23 13:31:52;;;;;;;2.88;2.45;;;29.00;63.10;;;;;;9182479;19;20098;-75
2022/06/23 13:35:02;;;;;;;5.93;2.50;;;29.10;62.80;;;;;;9182495;19;20015;-75
2022/06/23 13:38:18;;;;;;;3.78;2.58;;;29.30;61.70;;;;;;9180263;19;20355;-76
2022/06/23 13:41:28;;;;;;;3.65;2.78;;;29.40;60.80;;;;;;9181587;19;20094;-75
2022/06/23 13:44:42;;;;;;;4.32;2.70;;;29.70;60.50;;;;;;9184505;19;20051;-75
2022/06/23 13:47:55;;;;;;;5.68;2.67;;;29.80;60.40;;;;;;9186369;19;20106;-75
2022/06/23 13:51:05;;;;;;;5.10;2.75;;;29.70;57.60;;;;;;9182166;19;20036;-75
2022/06/23 13:54:18;;;;;;;5.15;3.20;;;30.10;58.60;;;;;;9179074;19;20018;-75
2022/06/23 13:57:29;;;;;;;4.68;2.58;;;30.20;57.60;;;;;;9183656;19;20015;-75
2022/06/23 14:00:41;;;;;;;3.30;2.65;;;30.30;58.30;;;;;;9180743;19;20051;-76
2022/06/23 14:03:54;;;;;;;4.30;2.78;;;30.20;57.10;;;;;;9183750;19;20047;-76
2022/06/23 14:07:08;;;;;;;5.07;2.63;;;30.60;58.00;;;;;;9182693;19;20020;-76
2022/06/23 14:10:18;;;;;;;4.53;2.70;;;30.60;56.10;;;;;;9184641;19;20487;-76
2022/06/23 14:13:29;;;;;;;4.60;2.60;;;30.50;56.70;;;;;;9181774;19;20051;-76
2022/06/23 14:16:41;;;;;;;4.38;2.60;;;30.70;55.30;;;;;;9184154;19;20016;-75
2022/06/23 14:19:55;;;;;;;3.67;2.50;;;30.70;55.40;;;;;;9183419;19;20491;-75
2022/06/23 14:23:07;;;;;;;4.57;2.67;;;31.00;56.00;;;;;;9181152;19;20039;-75
2022/06/23 14:26:16;;;;;;;10.95;2.90;;;31.00;53.40;;;;;;9181677;19;20015;-75
2022/06/23 14:29:26;;;;;;;3.40;2.40;;;31.10;52.40;;;;;;9182614;19;20022;-76
2022/06/23 14:32:40;;;;;;;4.13;2.45;;;31.10;54.20;;;;;;9183644;19;20014;-76
2022/06/23 14:35:50;;;;;;;4.00;2.58;;;31.20;53.00;;;;;;9181232;19;20014;-76
2022/06/23 14:39:05;;;;;;;4.35;2.38;;;31.20;53.00;;;;;;9181407;19;20047;-76
2022/06/23 14:42:20;;;;;;;2.65;2.35;;;31.30;52.30;;;;;;9178492;19;20007;-76
2022/06/23 14:45:44;;;;;;;4.63;2.45;;;31.60;53.10;;;;;;9179529;19;20022;-76
2022/06/23 14:49:16;;;;;;;4.53;2.53;;;31.50;52.40;;;;;;9175678;19;20011;-73
2022/06/23 14:52:32;;;;;;;3.35;2.47;;;31.40;51.50;;;;;;9181349;19;20067;-73
2022/06/23 14:55:45;;;;;;;4.60;2.17;;;31.60;53.00;;;;;;9179690;19;20010;-73
2022/06/23 14:58:55;;;;;;;4.60;2.20;;;31.70;53.10;;;;;;9178884;19;20014;-73
2022/06/23 15:02:27;;;;;;;6.95;2.50;;;31.70;52.30;;;;;;9181927;19;20011;-73
2022/06/23 15:05:55;;;;;;;6.03;2.83;;;31.70;48.50;;;;;;9176578;19;20355;-74
2022/06/23 15:09:06;;;;;;;3.67;2.50;;;31.80;51.40;;;;;;9181737;19;20021;-73
2022/06/23 15:12:19;;;;;;;4.03;2.53;;;31.90;51.30;;;;;;9177508;19;20022;-73
2022/06/23 15:15:31;;;;;;;4.47;2.30;;;32.00;51.70;;;;;;9180364;19;20078;-73
2022/06/23 15:18:43;;;;;;;6.25;2.72;;;31.90;50.80;;;;;;9181277;19;20498;-73
2022/06/23 15:25:19;;;;;;;3.28;2.20;;;32.00;50.90;;;;;;9177559;19;20022;-73
2022/06/23 15:28:31;;;;;;;5.00;2.42;;;32.20;51.20;;;;;;9175741;19;20031;-73
2022/06/23 15:31:42;;;;;;;4.57;2.40;;;32.10;50.50;;;;;;9175244;19;20010;-73
2022/06/23 15:34:52;;;;;;;3.58;2.08;;;32.40;50.80;;;;;;9176750;19;20018;-74
2022/06/23 15:38:25;;;;;;;3.25;2.30;;;32.70;49.90;;;;;;9176353;19;20011;-74
2022/06/23 15:41:46;;;;;;;4.30;2.22;;;32.50;47.40;;;;;;9174819;19;20552;-74
2022/06/23 15:44:57;;;;;;;3.97;2.30;;;32.70;47.50;;;;;;9179164;19;21054;-74
2022/06/23 15:48:08;;;;;;;4.65;2.35;;;32.70;48.60;;;;;;9178702;19;20483;-74
2022/06/23 15:51:16;;;;;;;6.50;2.45;;;32.80;48.00;;;;;;9178931;19;20360;-74
2022/06/23 15:54:35;;;;;;;5.88;2.40;;;32.90;47.70;;;;;;9187130;19;20061;-73
2022/06/23 15:57:44;;;;;;;4.78;2.33;;;32.80;47.00;;;;;;9187314;19;20066;-73
2022/06/23 16:00:54;;;;;;;2.97;2.22;;;32.80;51.30;;;;;;9183552;19;20018;-73
2022/06/23 16:03:59;;;;;;;2.80;2.03;;;32.80;47.60;;;;;;9185029;19;20463;-73
2022/06/23 16:07:12;;;;;;;4.40;1.98;;;32.80;47.60;;;;;;9189557;19;20014;-72
2022/06/23 16:10:35;;;;;;;2.45;2.10;;;33.00;48.10;;;;;;9183648;19;20019;-72
2022/06/23 16:13:43;;;;;;;3.10;2.10;;;33.20;46.60;;;;;;9187933;19;20043;-73
2022/06/23 16:16:51;;;;;;;4.78;2.17;;;33.00;46.80;;;;;;9182004;19;20490;-73
2022/06/23 16:20:00;;;;;;;5.35;2.25;;;32.90;46.50;;;;;;9187358;19;20018;-73
2022/06/23 16:23:12;;;;;;;6.82;2.70;;;32.90;47.30;;;;;;9187108;19;20037;-72
2022/06/23 16:26:31;;;;;;;3.38;2.45;;;33.10;48.00;;;;;;9186244;19;20022;-73
2022/06/23 16:29:43;;;;;;;2.92;2.00;;;33.40;47.20;;;;;;9183503;19;20363;-73
2022/06/23 16:32:51;;;;;;;3.92;2.17;;;33.10;46.70;;;;;;9184422;19;20018;-73
2022/06/23 16:36:02;;;;;;;3.30;2.00;;;33.40;46.90;;;;;;9185075;19;20355;-73
2022/06/23 16:39:12;;;;;;;2.60;1.92;;;33.20;47.70;;;;;;9183800;19;20015;-73
2022/06/23 16:42:41;;;;;;;3.67;2.08;;;33.40;46.50;;;;;;9182777;19;20014;-73
2022/06/23 16:45:50;;;;;;;3.35;2.00;;;33.50;46.90;;;;;;9184715;19;20014;-73
2022/06/23 16:49:00;;;;;;;3.88;2.20;;;33.40;47.30;;;;;;9183882;19;20096;-73
2022/06/23 16:52:13;;;;;;;4.28;2.13;;;33.50;46.60;;;;;;9183810;19;20498;-73
2022/06/23 16:55:26;;;;;;;3.85;2.40;;;33.60;47.00;;;;;;9184907;19;20024;-73
2022/06/23 16:58:40;;;;;;;4.18;2.10;;;33.60;47.60;;;;;;9180646;19;20018;-72